createdAt,value
2019-03-25T00:02:23.465Z,19.10
2019-03-25T00:04:51.869Z,16.65
2019-03-25T00:07:39.584Z,13.30
2019-03-25T00:10:08.215Z,14.47
2019-03-25T00:12:36.593Z,13.60
2019-03-25T00:15:06.330Z,15.93
2019-03-25T00:17:34.709Z,18.98
2019-03-25T00:20:03.167Z,18.20
2019-03-25T00:22:31.542Z,12.35
2019-03-25T00:24:59.919Z,14.68
2019-03-25T00:27:28.295Z,19.57
2019-03-25T00:29:56.704Z,16.48
2019-03-25T00:32:25.092Z,16.67
2019-03-25T00:34:53.551Z,18.52
2019-03-25T00:37:21.923Z,20.75
2019-03-25T00:39:50.317Z,14.28
2019-03-25T00:42:18.697Z,20.72
2019-03-25T00:44:47.103Z,16.77
2019-03-25T00:47:15.482Z,16.70
2019-03-25T00:49:43.881Z,15.32
2019-03-25T00:52:12.258Z,18.70
2019-03-25T00:54:49.631Z,20.45
2019-03-25T00:57:10.752Z,17.02
2019-03-25T00:59:39.149Z,18.20
2019-03-25T01:02:07.530Z,19.92
2019-03-25T01:04:35.913Z,19.60
2019-03-25T01:07:04.348Z,13.15
2019-03-25T01:09:32.771Z,13.62
2019-03-25T01:12:01.145Z,12.23
2019-03-25T01:14:29.524Z,13.18
2019-03-25T01:16:57.921Z,13.43
2019-03-25T01:19:26.305Z,13.10
2019-03-25T01:21:54.697Z,13.72
2019-03-25T01:24:23.076Z,12.68
2019-03-25T01:26:51.468Z,13.38
2019-03-25T01:29:19.852Z,16.50
2019-03-25T01:31:48.494Z,12.45
2019-03-25T01:34:16.920Z,15.28
2019-03-25T01:36:45.307Z,14.18
2019-03-25T01:39:13.692Z,15.00
2019-03-25T01:41:42.090Z,13.08
2019-03-25T01:44:10.472Z,12.03
2019-03-25T01:46:38.860Z,12.28
2019-03-25T01:49:07.236Z,12.60
2019-03-25T01:51:35.632Z,13.80
2019-03-25T01:54:04.013Z,10.35
2019-03-25T01:56:32.401Z,13.75
2019-03-25T01:59:00.780Z,13.38
2019-03-25T02:01:29.170Z,13.48
2019-03-25T02:03:57.548Z,14.25
2019-03-25T02:06:25.944Z,14.95
2019-03-25T02:08:54.322Z,10.98
2019-03-25T02:11:22.716Z,15.72
2019-03-25T02:13:51.089Z,8.38
2019-03-25T02:16:19.487Z,11.50
2019-03-25T02:18:47.856Z,9.90
2019-03-25T02:21:16.248Z,13.62
2019-03-25T02:23:44.625Z,13.88
2019-03-25T02:26:13.018Z,15.83
2019-03-25T02:28:41.401Z,11.55
2019-03-25T02:31:09.796Z,12.70
2019-03-25T02:33:38.168Z,11.50
2019-03-25T02:36:06.570Z,18.35
2019-03-25T02:38:35.272Z,13.18
2019-03-25T02:41:03.744Z,14.40
2019-03-25T02:43:32.114Z,9.88
2019-03-25T02:46:00.506Z,9.93
2019-03-25T02:48:28.887Z,11.10
2019-03-25T02:50:57.277Z,15.43
2019-03-25T02:53:25.655Z,11.95
2019-03-25T02:55:54.046Z,14.85
2019-03-25T02:58:22.438Z,14.80
2019-03-25T03:00:50.825Z,10.90
2019-03-25T03:03:19.209Z,14.55
2019-03-25T03:05:47.608Z,13.88
2019-03-25T03:08:15.986Z,11.28
2019-03-25T03:10:44.395Z,11.00
2019-03-25T03:13:12.776Z,15.53
2019-03-25T03:15:41.192Z,21.37
2019-03-25T03:18:09.573Z,14.70
2019-03-25T03:20:37.965Z,13.18
2019-03-25T03:23:06.509Z,13.38
2019-03-25T03:25:34.909Z,13.08
2019-03-25T03:28:03.378Z,18.27
2019-03-25T03:30:31.750Z,12.40
2019-03-25T03:33:00.130Z,16.90
2019-03-25T03:35:28.525Z,12.85
2019-03-25T03:37:56.896Z,13.88
2019-03-25T03:40:25.295Z,10.03
2019-03-25T03:42:53.665Z,12.13
2019-03-25T03:45:22.064Z,12.15
2019-03-25T03:47:50.438Z,13.88
2019-03-25T03:50:24.385Z,18.50
2019-03-25T03:52:53.365Z,14.95
2019-03-25T03:55:21.768Z,15.98
2019-03-25T03:57:51.127Z,16.05
2019-03-25T04:00:33.359Z,12.05
2019-03-25T04:03:01.765Z,18.15
2019-03-25T04:05:30.207Z,12.88
2019-03-25T04:07:58.756Z,18.00
2019-03-25T04:10:27.386Z,16.12
2019-03-25T04:12:56.057Z,18.82
2019-03-25T04:15:29.104Z,13.93
2019-03-25T04:17:58.516Z,20.20
2019-03-25T04:20:26.894Z,16.05
2019-03-25T04:22:55.288Z,14.55
2019-03-25T04:25:23.665Z,15.08
2019-03-25T04:27:52.058Z,17.12
2019-03-25T04:30:20.438Z,19.02
2019-03-25T04:32:48.851Z,21.00
2019-03-25T04:35:17.233Z,17.45
2019-03-25T04:37:45.613Z,18.00
2019-03-25T04:40:14.062Z,21.45
2019-03-25T04:42:42.454Z,20.50
2019-03-25T04:45:10.899Z,19.25
2019-03-25T04:47:39.305Z,11.33
2019-03-25T04:50:08.118Z,22.62
2019-03-25T04:52:36.513Z,18.27
2019-03-25T04:55:06.623Z,25.82
2019-03-25T04:57:35.014Z,17.32
2019-03-25T05:00:04.834Z,14.35
2019-03-25T05:02:33.212Z,12.82
2019-03-25T05:05:01.599Z,21.57
2019-03-25T05:07:30.244Z,18.27
2019-03-25T05:09:58.627Z,19.05
2019-03-25T05:12:27.012Z,21.42
2019-03-25T05:14:55.393Z,12.90
2019-03-25T05:17:23.790Z,16.02
2019-03-25T05:19:52.168Z,14.47
2019-03-25T05:22:20.831Z,18.70
2019-03-25T05:24:49.208Z,20.23
2019-03-25T05:27:17.596Z,14.98
2019-03-25T05:29:45.972Z,16.45
2019-03-25T05:32:14.370Z,20.48
2019-03-25T05:34:42.743Z,21.33
2019-03-25T05:37:11.132Z,19.92
2019-03-25T05:39:39.514Z,17.65
2019-03-25T05:42:07.901Z,17.77
2019-03-25T05:44:36.283Z,18.67
2019-03-25T05:47:04.669Z,21.35
2019-03-25T05:49:33.044Z,17.25
2019-03-25T05:52:01.436Z,18.87
2019-03-25T05:54:29.842Z,18.65
2019-03-25T05:57:02.745Z,20.27
2019-03-25T05:59:28.341Z,18.32
2019-03-25T06:01:56.752Z,17.40
2019-03-25T06:04:25.114Z,19.80
2019-03-25T06:06:53.507Z,17.57
2019-03-25T06:09:21.888Z,16.02
2019-03-25T06:11:51.122Z,17.73
2019-03-25T06:14:19.497Z,14.23
2019-03-25T06:16:47.897Z,16.17
2019-03-25T06:19:16.273Z,17.23
2019-03-25T06:21:44.669Z,16.15
2019-03-25T06:24:13.060Z,18.98
2019-03-25T06:26:41.466Z,16.50
2019-03-25T06:29:09.836Z,14.15
2019-03-25T06:31:38.223Z,16.60
2019-03-25T06:34:06.609Z,17.07
2019-03-25T06:36:35.049Z,16.02
2019-03-25T06:39:04.732Z,15.45
2019-03-25T06:41:33.174Z,17.60
2019-03-25T06:44:01.546Z,12.88
2019-03-25T06:46:29.933Z,14.40
2019-03-25T06:48:58.313Z,14.73
2019-03-25T06:51:26.710Z,20.25
2019-03-25T06:53:55.098Z,19.77
2019-03-25T06:56:23.790Z,13.25
2019-03-25T06:58:52.173Z,15.90
2019-03-25T07:01:20.566Z,12.93
2019-03-25T07:03:48.945Z,11.43
2019-03-25T07:06:17.342Z,16.50
2019-03-25T07:08:45.726Z,15.05
2019-03-25T07:11:14.104Z,18.65
2019-03-25T07:13:42.529Z,19.23
2019-03-25T07:16:10.915Z,15.78
2019-03-25T07:18:39.304Z,13.75
2019-03-25T07:21:08.927Z,18.98
2019-03-25T07:23:37.308Z,11.83
2019-03-25T07:26:05.707Z,14.07
2019-03-25T07:28:34.123Z,14.00
2019-03-25T07:31:02.492Z,16.32
2019-03-25T07:33:30.883Z,11.08
2019-03-25T07:35:59.276Z,13.88
2019-03-25T07:38:27.677Z,13.58
2019-03-25T07:40:56.072Z,17.73
2019-03-25T07:43:24.462Z,13.30
2019-03-25T07:45:52.845Z,20.32
2019-03-25T07:48:21.233Z,9.45
2019-03-25T07:50:49.620Z,12.60
2019-03-25T07:53:18.042Z,11.57
2019-03-25T07:55:46.429Z,14.15
2019-03-25T07:58:14.818Z,20.97
2019-03-25T08:00:43.210Z,13.22
2019-03-25T08:03:11.599Z,14.95
2019-03-25T08:05:39.975Z,12.78
2019-03-25T08:08:08.376Z,17.48
2019-03-25T08:10:37.155Z,12.85
2019-03-25T08:13:07.053Z,17.30
2019-03-25T08:15:35.563Z,18.98
2019-03-25T08:18:05.030Z,22.32
2019-03-25T08:20:33.412Z,19.20
2019-03-25T08:23:01.849Z,12.85
2019-03-25T08:25:30.304Z,16.30
2019-03-25T08:28:00.210Z,12.40
2019-03-25T08:30:28.869Z,14.05
2019-03-25T08:32:57.282Z,18.07
2019-03-25T08:35:25.657Z,14.93
2019-03-25T08:37:54.053Z,16.62
2019-03-25T08:40:22.433Z,14.05
2019-03-25T08:42:50.856Z,13.22
2019-03-25T08:45:19.309Z,12.03
2019-03-25T08:47:47.720Z,11.70
2019-03-25T08:50:16.403Z,9.68
2019-03-25T08:52:44.797Z,10.38
2019-03-25T08:55:13.176Z,12.20
2019-03-25T08:57:41.566Z,6.17
2019-03-25T09:00:11.101Z,12.35
2019-03-25T09:02:39.496Z,10.53
2019-03-25T09:05:08.313Z,10.32
2019-03-25T09:07:37.089Z,14.10
2019-03-25T09:10:09.263Z,10.35
2019-03-25T09:12:37.801Z,15.50
2019-03-25T09:15:11.836Z,9.50
2019-03-25T09:17:40.235Z,12.90
2019-03-25T09:20:09.418Z,5.58
2019-03-25T09:22:37.881Z,8.10
2019-03-25T09:25:10.072Z,6.90
2019-03-25T09:27:38.460Z,6.30
2019-03-25T09:30:08.566Z,10.98
2019-03-25T09:32:37.025Z,8.30
2019-03-25T09:35:07.169Z,7.85
2019-03-25T09:37:35.561Z,7.22
2019-03-25T09:40:08.733Z,8.03
2019-03-25T09:42:37.212Z,11.20
2019-03-25T09:45:08.077Z,7.03
2019-03-25T09:47:37.851Z,9.53
2019-03-25T09:50:07.515Z,10.18
2019-03-25T09:52:38.676Z,5.42
2019-03-25T09:55:08.057Z,9.73
2019-03-25T09:57:36.712Z,7.62
2019-03-25T10:00:10.752Z,6.80
2019-03-25T10:02:39.148Z,9.45
2019-03-25T10:05:08.472Z,7.60
2019-03-25T10:07:36.869Z,9.88
2019-03-25T10:10:09.139Z,8.68
2019-03-25T10:12:37.557Z,9.23
2019-03-25T10:15:07.886Z,6.65
2019-03-25T10:17:36.299Z,7.80
2019-03-25T10:20:07.899Z,8.30
2019-03-25T10:22:36.357Z,5.05
2019-03-25T10:25:06.797Z,6.35
2019-03-25T10:27:35.214Z,6.97
2019-03-25T10:30:05.294Z,10.58
2019-03-25T10:32:33.703Z,8.45
2019-03-25T10:35:02.132Z,6.60
2019-03-25T10:37:30.533Z,9.10
2019-03-25T10:39:58.911Z,5.53
2019-03-25T10:42:27.324Z,5.95
2019-03-25T10:44:55.787Z,7.17
2019-03-25T10:47:24.253Z,5.08
2019-03-25T10:49:52.640Z,5.67
2019-03-25T10:52:21.120Z,6.58
2019-03-25T10:54:49.629Z,5.05
2019-03-25T10:57:18.191Z,5.70
2019-03-25T10:59:46.585Z,8.55
2019-03-25T11:02:15.100Z,4.45
2019-03-25T11:04:43.499Z,7.40
2019-03-25T11:07:11.902Z,6.92
2019-03-25T11:09:40.355Z,4.15
2019-03-25T11:12:08.749Z,5.97
2019-03-25T11:14:37.136Z,6.70
2019-03-25T11:17:05.520Z,4.33
2019-03-25T11:19:33.917Z,5.28
2019-03-25T11:22:02.296Z,6.05
2019-03-25T11:24:30.702Z,5.95
2019-03-25T11:26:59.079Z,4.08
2019-03-25T11:29:27.505Z,5.25
2019-03-25T11:31:55.884Z,5.45
2019-03-25T11:34:24.282Z,7.12
2019-03-25T11:36:52.656Z,6.58
2019-03-25T11:39:21.051Z,5.60
2019-03-25T11:41:49.448Z,6.33
2019-03-25T11:44:18.108Z,6.50
2019-03-25T11:46:46.491Z,4.12
2019-03-25T11:49:14.888Z,4.17
2019-03-25T11:51:43.277Z,4.58
2019-03-25T11:54:11.672Z,4.78
2019-03-25T11:56:40.095Z,9.33
2019-03-25T11:59:18.131Z,3.27
2019-03-25T12:01:38.592Z,3.47
2019-03-25T12:04:06.989Z,8.03
2019-03-25T12:06:35.376Z,4.75
2019-03-25T12:09:05.324Z,3.25
2019-03-25T12:11:34.030Z,4.53
2019-03-25T12:14:02.483Z,2.08
2019-03-25T12:16:31.542Z,3.12
2019-03-25T12:18:59.961Z,3.22
2019-03-25T12:21:28.331Z,3.05
2019-03-25T12:23:56.717Z,5.70
2019-03-25T12:26:25.099Z,7.12
2019-03-25T12:28:53.488Z,4.08
2019-03-25T12:31:21.876Z,2.92
2019-03-25T12:33:50.382Z,7.42
2019-03-25T12:36:18.759Z,9.65
2019-03-25T12:38:47.240Z,6.03
2019-03-25T12:41:15.678Z,4.45
2019-03-25T12:43:44.072Z,5.65
2019-03-25T12:46:12.452Z,5.37
2019-03-25T12:48:40.839Z,4.45
2019-03-25T12:51:09.292Z,3.95
2019-03-25T12:53:37.679Z,3.80
2019-03-25T12:56:06.068Z,7.33
2019-03-25T12:58:34.467Z,15.00
2019-03-25T13:01:02.878Z,12.20
2019-03-25T13:03:31.253Z,3.55
2019-03-25T13:05:59.649Z,12.20
2019-03-25T13:08:33.150Z,2.67
2019-03-25T13:10:58.152Z,4.33
2019-03-25T13:13:26.550Z,6.42
2019-03-25T13:15:54.933Z,4.22
2019-03-25T13:18:23.327Z,4.45
2019-03-25T13:20:51.719Z,4.28
2019-03-25T13:23:20.093Z,3.30
2019-03-25T13:25:48.492Z,5.30
2019-03-25T13:28:16.876Z,2.42
2019-03-25T13:30:45.279Z,2.75
2019-03-25T13:33:13.659Z,2.10
2019-03-25T13:35:42.052Z,2.90
2019-03-25T13:38:10.439Z,4.03
2019-03-25T13:40:38.827Z,4.95
2019-03-25T13:43:07.212Z,3.35
2019-03-25T13:45:35.612Z,2.95
2019-03-25T13:48:03.995Z,4.03
2019-03-25T13:50:32.396Z,4.28
2019-03-25T13:53:00.858Z,5.95
2019-03-25T13:55:29.252Z,3.85
2019-03-25T13:57:57.644Z,5.33
2019-03-25T14:00:37.352Z,4.53
2019-03-25T14:03:05.800Z,4.93
2019-03-25T14:05:34.196Z,5.30
2019-03-25T14:08:02.582Z,4.80
2019-03-25T14:10:31.044Z,3.02
2019-03-25T14:12:59.424Z,5.33
2019-03-25T14:15:27.880Z,4.72
2019-03-25T14:17:56.266Z,4.12
2019-03-25T14:20:24.659Z,3.67
2019-03-25T14:22:53.036Z,3.37
2019-03-25T14:25:21.432Z,2.37
2019-03-25T14:27:49.828Z,3.10
2019-03-25T14:30:18.567Z,2.05
2019-03-25T14:32:46.953Z,1.85
2019-03-25T14:35:15.340Z,1.37
2019-03-25T14:37:43.724Z,1.05
2019-03-25T14:40:12.199Z,3.52
2019-03-25T14:42:40.577Z,2.35
2019-03-25T14:45:09.918Z,2.83
2019-03-25T14:47:38.298Z,2.83
2019-03-25T14:50:07.639Z,3.02
2019-03-25T14:52:36.024Z,1.55
2019-03-25T14:55:05.052Z,3.55
2019-03-25T14:57:33.441Z,2.42
2019-03-25T15:00:01.830Z,3.65
2019-03-25T15:02:30.213Z,3.62
2019-03-25T15:04:58.615Z,4.62
2019-03-25T15:07:26.997Z,2.35
2019-03-25T15:09:55.392Z,3.42
2019-03-25T15:12:23.840Z,3.40
2019-03-25T15:14:52.249Z,3.30
2019-03-25T15:17:20.634Z,2.50
2019-03-25T15:19:49.031Z,1.30
2019-03-25T15:22:17.412Z,3.85
2019-03-25T15:24:45.816Z,3.08
2019-03-25T15:27:14.338Z,3.30
2019-03-25T15:29:42.825Z,1.70
2019-03-25T15:32:11.212Z,3.15
2019-03-25T15:34:39.608Z,2.12
2019-03-25T15:37:07.993Z,3.30
2019-03-25T15:39:46.115Z,2.83
2019-03-25T15:42:06.492Z,1.65
2019-03-25T15:44:34.885Z,2.05
2019-03-25T15:47:03.283Z,2.35
2019-03-25T15:49:31.672Z,2.17
2019-03-25T15:52:00.060Z,3.47
2019-03-25T15:54:28.456Z,2.27
2019-03-25T15:56:56.841Z,2.42
2019-03-25T15:59:25.237Z,3.55
2019-03-25T16:01:53.621Z,5.65
2019-03-25T16:04:22.015Z,4.03
2019-03-25T16:06:50.395Z,5.47
2019-03-25T16:09:18.813Z,7.85
2019-03-25T16:11:47.195Z,3.75
2019-03-25T16:14:15.594Z,4.00
2019-03-25T16:16:43.967Z,2.25
2019-03-25T16:19:12.429Z,3.30
2019-03-25T16:21:40.819Z,1.75
2019-03-25T16:24:09.500Z,3.25
2019-03-25T16:26:37.912Z,1.42
2019-03-25T16:29:06.288Z,1.07
2019-03-25T16:31:34.689Z,2.58
2019-03-25T16:34:03.068Z,1.27
2019-03-25T16:36:31.467Z,1.90
2019-03-25T16:38:59.893Z,2.95
2019-03-25T16:41:28.316Z,4.45
2019-03-25T16:43:56.696Z,4.10
2019-03-25T16:46:25.079Z,1.87
2019-03-25T16:48:55.156Z,2.15
2019-03-25T16:51:23.937Z,2.83
2019-03-25T16:53:52.320Z,4.33
2019-03-25T16:56:20.717Z,5.67
2019-03-25T16:58:49.102Z,2.62
2019-03-25T17:01:17.767Z,4.62
2019-03-25T17:03:46.762Z,3.65
2019-03-25T17:06:15.149Z,3.95
2019-03-25T17:08:43.536Z,4.45
2019-03-25T17:11:11.996Z,4.65
2019-03-25T17:13:40.392Z,1.25
2019-03-25T17:16:08.785Z,4.58
2019-03-25T17:18:37.169Z,4.37
2019-03-25T17:21:05.562Z,3.98
2019-03-25T17:23:33.949Z,3.60
2019-03-25T17:26:02.344Z,4.08
2019-03-25T17:28:30.730Z,3.05
2019-03-25T17:30:59.125Z,1.92
2019-03-25T17:33:27.512Z,4.08
2019-03-25T17:35:55.938Z,7.45
2019-03-25T17:38:24.329Z,3.52
2019-03-25T17:40:52.780Z,4.35
2019-03-25T17:43:21.168Z,2.50
2019-03-25T17:45:49.552Z,5.75
2019-03-25T17:48:18.106Z,3.12
2019-03-25T17:50:46.734Z,6.45
2019-03-25T17:53:15.133Z,5.17
2019-03-25T17:55:43.525Z,5.28
2019-03-25T17:58:11.907Z,1.12
2019-03-25T18:00:52.324Z,2.47
2019-03-25T18:03:20.714Z,1.20
2019-03-25T18:05:49.100Z,5.05
2019-03-25T18:08:17.486Z,2.60
2019-03-25T18:10:45.869Z,6.30
2019-03-25T18:13:22.207Z,3.17
2019-03-25T18:15:44.353Z,4.85
2019-03-25T18:18:12.728Z,2.08
2019-03-25T18:20:41.124Z,3.95
2019-03-25T18:23:09.496Z,5.25
2019-03-25T18:25:37.894Z,2.72
2019-03-25T18:28:06.265Z,2.75
2019-03-25T18:30:35.112Z,3.98
2019-03-25T18:33:03.507Z,3.72
2019-03-25T18:35:31.881Z,2.33
2019-03-25T18:40:26.761Z,6.17
2019-03-25T18:42:55.159Z,3.70
2019-03-25T18:45:23.536Z,2.50
2019-03-25T18:47:53.340Z,2.70
2019-03-25T18:50:21.913Z,2.25
2019-03-25T18:52:50.305Z,5.53
2019-03-25T18:55:18.831Z,9.00
2019-03-25T18:57:47.265Z,3.92
2019-03-25T19:00:34.990Z,2.20
2019-03-25T19:03:03.913Z,4.83
2019-03-25T19:05:32.307Z,1.65
2019-03-25T19:08:03.533Z,2.67
2019-03-25T19:10:32.244Z,4.80
2019-03-25T19:13:00.720Z,2.47
2019-03-25T19:15:29.088Z,6.60
2019-03-25T19:17:57.473Z,3.22
2019-03-25T19:20:25.882Z,4.75
2019-03-25T19:22:54.259Z,4.05
2019-03-25T19:25:22.666Z,3.52
2019-03-25T19:27:51.286Z,4.15
2019-03-25T19:30:19.743Z,3.80
2019-03-25T19:32:48.166Z,4.05
2019-03-25T19:35:16.970Z,6.45
2019-03-25T19:37:45.437Z,4.20
2019-03-25T19:40:14.165Z,4.33
2019-03-25T19:42:42.633Z,2.05
2019-03-25T19:45:11.445Z,1.95
2019-03-25T19:47:39.868Z,3.87
2019-03-25T19:50:08.708Z,2.60
2019-03-25T19:52:37.205Z,5.08
2019-03-25T19:55:05.722Z,3.77
2019-03-25T19:57:34.135Z,2.25
2019-03-25T20:00:02.530Z,4.85
2019-03-25T20:02:30.957Z,3.35
2019-03-25T20:04:59.404Z,4.90
2019-03-25T20:07:27.792Z,1.50
2019-03-25T20:09:56.233Z,5.12
2019-03-25T20:12:24.674Z,2.87
2019-03-25T20:14:53.046Z,3.90
2019-03-25T20:17:21.467Z,5.45
2019-03-25T20:19:49.986Z,3.83
2019-03-25T20:22:18.450Z,7.78
2019-03-25T20:24:46.864Z,4.92
2019-03-25T20:27:15.408Z,4.78
2019-03-25T20:29:43.971Z,5.10
2019-03-25T20:32:12.347Z,4.53
2019-03-25T20:34:40.846Z,7.20
2019-03-25T20:37:09.298Z,8.30
2019-03-25T20:39:37.709Z,5.35
2019-03-25T20:42:06.176Z,7.40
2019-03-25T20:44:34.604Z,3.45
2019-03-25T20:47:03.053Z,3.98
2019-03-25T20:49:31.486Z,5.28
2019-03-25T20:52:00.026Z,6.53
2019-03-25T20:54:28.601Z,5.33
2019-03-25T20:56:57.278Z,6.58
2019-03-25T20:59:25.772Z,4.40
2019-03-25T21:01:54.140Z,8.83
2019-03-25T21:04:22.625Z,5.92
2019-03-25T21:06:51.000Z,9.48
2019-03-25T21:09:19.447Z,3.20
2019-03-25T21:11:47.861Z,9.10
2019-03-25T21:14:16.252Z,4.97
2019-03-25T21:16:44.784Z,5.12
2019-03-25T21:19:13.190Z,8.28
2019-03-25T21:21:41.728Z,6.78
2019-03-25T21:24:10.205Z,6.92
2019-03-25T21:26:38.580Z,8.45
2019-03-25T21:29:06.999Z,6.10
2019-03-25T21:31:35.507Z,5.08
2019-03-25T21:34:03.980Z,6.67
2019-03-25T21:36:32.462Z,5.78
2019-03-25T21:39:00.886Z,6.22
2019-03-25T21:41:29.290Z,9.60
2019-03-25T21:43:57.970Z,8.78
2019-03-25T21:46:26.352Z,5.80
2019-03-25T21:48:54.946Z,3.72
2019-03-25T21:51:23.454Z,7.22
2019-03-25T21:53:53.110Z,5.80
2019-03-25T21:56:21.876Z,7.00
2019-03-25T21:58:50.343Z,8.53
2019-03-25T22:01:18.693Z,7.35
2019-03-25T22:03:47.080Z,6.15
2019-03-25T22:06:15.464Z,8.80
2019-03-25T22:08:43.896Z,5.95
2019-03-25T22:11:12.284Z,7.33
2019-03-25T22:13:40.772Z,6.08
2019-03-25T22:16:09.181Z,6.30
2019-03-25T22:18:37.616Z,5.97
2019-03-25T22:21:05.982Z,5.53
2019-03-25T22:23:34.373Z,7.70
2019-03-25T22:26:02.756Z,5.00
2019-03-25T22:28:31.153Z,5.35
2019-03-25T22:30:59.612Z,6.08
2019-03-25T22:33:28.005Z,5.22
2019-03-25T22:35:56.392Z,8.28
2019-03-25T22:38:24.775Z,7.45
2019-03-25T22:40:53.163Z,6.03
2019-03-25T22:43:21.597Z,8.75
2019-03-25T22:45:49.982Z,7.55
2019-03-25T22:48:18.374Z,6.72
2019-03-25T22:50:46.749Z,5.00
2019-03-25T22:53:15.144Z,4.60
2019-03-25T22:55:43.764Z,5.78
2019-03-25T22:58:12.164Z,8.20
2019-03-25T23:00:44.931Z,5.30
2019-03-25T23:03:13.320Z,7.15
2019-03-25T23:05:41.693Z,5.75
2019-03-25T23:08:10.156Z,6.10
2019-03-25T23:10:38.541Z,5.75
2019-03-25T23:13:06.936Z,7.08
2019-03-25T23:15:35.308Z,6.58
2019-03-25T23:18:03.770Z,4.00
2019-03-25T23:20:32.157Z,9.43
2019-03-25T23:23:00.548Z,5.90
2019-03-25T23:25:28.928Z,7.33
2019-03-25T23:27:57.313Z,6.30
2019-03-25T23:30:25.691Z,7.35
2019-03-25T23:32:54.128Z,8.50
2019-03-25T23:35:22.504Z,9.00
2019-03-25T23:37:50.904Z,6.05
2019-03-25T23:40:19.296Z,6.92
2019-03-25T23:42:47.701Z,9.15
2019-03-25T23:45:16.089Z,4.90
2019-03-25T23:47:44.486Z,4.95
2019-03-25T23:50:12.943Z,6.25
2019-03-25T23:52:41.331Z,7.40
2019-03-25T23:55:09.716Z,6.15
2019-03-25T23:57:38.100Z,8.38
